Search for airport 
image banner adimage banner adimage banner ad
image banner ad

KHTH - Hawthorne Industrial

Located in Hawthorne, United States

ICAO - HTH, IATA -

Data provided by Airmate  

General information

Coordinates: N38°32'42" W118°37'57"
Elevation is 4230 feet MSL.
Magnetic variation is 13° East
View others Airports in Nevada

Operational data

Special qualification required
Current time UTC:
Current local time:
Weather
METAR: KHTH 131055Z AUTO 00000KT 10SM CLR 19/01 A2997 RMK A01
View NOTAMs / SUP AIP / TFR affecting this airport [VIEW]
Communications frequencies: [VIEW]

Runways:

RWY identifierQFULength (ft)Width (ft)SurfaceLDA (ft)
106000100ASPH
286000100ASPH
153250130EARTH
333250130EARTH

Airport contact information

Address: Hawthorne United States

Satellite view of KHTH